sensor_id;sensor_type;location;lat;lon;timestamp;P1;durP1;ratioP1;P2;durP2;ratioP2
37973;SDS011;23796;51.458;7.000;2023-08-06T00:01:43;2.90;;;1.63;;
37973;SDS011;23796;51.458;7.000;2023-08-06T00:04:09;3.40;;;1.77;;
37973;SDS011;23796;51.458;7.000;2023-08-06T00:06:34;4.90;;;1.73;;
37973;SDS011;23796;51.458;7.000;2023-08-06T00:09:00;3.85;;;1.80;;
37973;SDS011;23796;51.458;7.000;2023-08-06T00:11:25;3.30;;;1.67;;
37973;SDS011;23796;51.458;7.000;2023-08-06T00:13:51;5.00;;;1.85;;
37973;SDS011;23796;51.458;7.000;2023-08-06T00:16:19;3.30;;;1.63;;
37973;SDS011;23796;51.458;7.000;2023-08-06T00:18:45;3.95;;;1.60;;
37973;SDS011;23796;51.458;7.000;2023-08-06T00:21:10;4.25;;;1.30;;
37973;SDS011;23796;51.458;7.000;2023-08-06T00:23:37;3.80;;;2.00;;
37973;SDS011;23796;51.458;7.000;2023-08-06T00:26:05;4.40;;;1.77;;
37973;SDS011;23796;51.458;7.000;2023-08-06T00:28:31;4.63;;;1.60;;
37973;SDS011;23796;51.458;7.000;2023-08-06T00:30:56;3.55;;;1.55;;
37973;SDS011;23796;51.458;7.000;2023-08-06T00:33:25;3.72;;;1.75;;
37973;SDS011;23796;51.458;7.000;2023-08-06T00:35:50;3.08;;;1.63;;
37973;SDS011;23796;51.458;7.000;2023-08-06T00:38:16;5.00;;;2.25;;
37973;SDS011;23796;51.458;7.000;2023-08-06T00:40:41;3.15;;;1.73;;
37973;SDS011;23796;51.458;7.000;2023-08-06T00:43:07;4.88;;;1.70;;
37973;SDS011;23796;51.458;7.000;2023-08-06T00:45:34;4.22;;;1.80;;
37973;SDS011;23796;51.458;7.000;2023-08-06T00:48:01;5.50;;;1.30;;
37973;SDS011;23796;51.458;7.000;2023-08-06T00:50:28;4.15;;;1.60;;
37973;SDS011;23796;51.458;7.000;2023-08-06T00:52:54;4.47;;;1.55;;
37973;SDS011;23796;51.458;7.000;2023-08-06T00:55:20;6.60;;;1.90;;
37973;SDS011;23796;51.458;7.000;2023-08-06T00:57:46;3.33;;;1.80;;
37973;SDS011;23796;51.458;7.000;2023-08-06T01:00:12;3.65;;;1.73;;
37973;SDS011;23796;51.458;7.000;2023-08-06T01:02:38;3.53;;;1.83;;
37973;SDS011;23796;51.458;7.000;2023-08-06T01:05:04;3.55;;;1.77;;
37973;SDS011;23796;51.458;7.000;2023-08-06T01:13:15;3.20;;;1.50;;
37973;SDS011;23796;51.458;7.000;2023-08-06T01:15:52;4.15;;;1.80;;
37973;SDS011;23796;51.458;7.000;2023-08-06T01:18:24;4.00;;;1.60;;
37973;SDS011;23796;51.458;7.000;2023-08-06T01:20:52;2.90;;;1.38;;
37973;SDS011;23796;51.458;7.000;2023-08-06T01:23:18;5.32;;;1.67;;
37973;SDS011;23796;51.458;7.000;2023-08-06T01:28:56;5.18;;;1.63;;
37973;SDS011;23796;51.458;7.000;2023-08-06T01:31:30;4.53;;;1.60;;
37973;SDS011;23796;51.458;7.000;2023-08-06T01:33:58;3.67;;;1.50;;
37973;SDS011;23796;51.458;7.000;2023-08-06T01:36:25;4.38;;;1.48;;
37973;SDS011;23796;51.458;7.000;2023-08-06T01:38:52;3.40;;;1.70;;
37973;SDS011;23796;51.458;7.000;2023-08-06T01:41:18;5.35;;;1.80;;
37973;SDS011;23796;51.458;7.000;2023-08-06T01:43:43;4.03;;;1.63;;
37973;SDS011;23796;51.458;7.000;2023-08-06T01:46:11;2.65;;;1.45;;
37973;SDS011;23796;51.458;7.000;2023-08-06T01:48:37;3.30;;;1.38;;
37973;SDS011;23796;51.458;7.000;2023-08-06T01:51:06;4.05;;;1.60;;
37973;SDS011;23796;51.458;7.000;2023-08-06T01:53:32;3.92;;;1.60;;
37973;SDS011;23796;51.458;7.000;2023-08-06T01:56:00;4.53;;;1.75;;
37973;SDS011;23796;51.458;7.000;2023-08-06T01:58:26;3.30;;;1.48;;
37973;SDS011;23796;51.458;7.000;2023-08-06T02:00:52;3.72;;;1.70;;
37973;SDS011;23796;51.458;7.000;2023-08-06T02:03:17;4.40;;;1.70;;
37973;SDS011;23796;51.458;7.000;2023-08-06T02:05:43;4.75;;;1.60;;
37973;SDS011;23796;51.458;7.000;2023-08-06T02:08:08;3.45;;;1.70;;
37973;SDS011;23796;51.458;7.000;2023-08-06T02:10:34;4.03;;;1.60;;
37973;SDS011;23796;51.458;7.000;2023-08-06T02:13:00;3.88;;;1.40;;
37973;SDS011;23796;51.458;7.000;2023-08-06T02:15:25;2.67;;;1.42;;
37973;SDS011;23796;51.458;7.000;2023-08-06T02:17:51;2.90;;;1.40;;
37973;SDS011;23796;51.458;7.000;2023-08-06T02:20:16;3.63;;;1.50;;
37973;SDS011;23796;51.458;7.000;2023-08-06T02:22:42;4.07;;;1.80;;
37973;SDS011;23796;51.458;7.000;2023-08-06T02:25:08;2.83;;;1.73;;
37973;SDS011;23796;51.458;7.000;2023-08-06T02:27:36;3.35;;;1.70;;
37973;SDS011;23796;51.458;7.000;2023-08-06T02:30:05;3.05;;;1.52;;
37973;SDS011;23796;51.458;7.000;2023-08-06T02:32:31;3.75;;;1.42;;
37973;SDS011;23796;51.458;7.000;2023-08-06T02:34:58;3.85;;;1.58;;
37973;SDS011;23796;51.458;7.000;2023-08-06T02:37:23;5.82;;;1.42;;
37973;SDS011;23796;51.458;7.000;2023-08-06T02:39:49;2.92;;;1.52;;
37973;SDS011;23796;51.458;7.000;2023-08-06T02:42:14;5.40;;;1.77;;
37973;SDS011;23796;51.458;7.000;2023-08-06T02:44:40;5.57;;;1.60;;
37973;SDS011;23796;51.458;7.000;2023-08-06T02:47:05;4.63;;;1.52;;
37973;SDS011;23796;51.458;7.000;2023-08-06T02:49:31;3.92;;;1.58;;
37973;SDS011;23796;51.458;7.000;2023-08-06T02:51:57;4.10;;;1.58;;
37973;SDS011;23796;51.458;7.000;2023-08-06T02:54:22;3.40;;;1.60;;
37973;SDS011;23796;51.458;7.000;2023-08-06T02:56:48;2.92;;;1.38;;
37973;SDS011;23796;51.458;7.000;2023-08-06T02:59:13;4.75;;;1.92;;
37973;SDS011;23796;51.458;7.000;2023-08-06T03:01:42;3.42;;;1.92;;
37973;SDS011;23796;51.458;7.000;2023-08-06T03:04:07;3.45;;;1.70;;
37973;SDS011;23796;51.458;7.000;2023-08-06T03:06:33;4.22;;;1.83;;
37973;SDS011;23796;51.458;7.000;2023-08-06T03:08:58;3.20;;;1.90;;
37973;SDS011;23796;51.458;7.000;2023-08-06T03:11:24;2.58;;;1.35;;
37973;SDS011;23796;51.458;7.000;2023-08-06T03:13:50;4.15;;;1.92;;
37973;SDS011;23796;51.458;7.000;2023-08-06T03:16:15;3.80;;;1.98;;
37973;SDS011;23796;51.458;7.000;2023-08-06T03:18:41;4.97;;;2.00;;
37973;SDS011;23796;51.458;7.000;2023-08-06T03:21:06;3.70;;;1.75;;
37973;SDS011;23796;51.458;7.000;2023-08-06T03:23:32;3.88;;;2.03;;
37973;SDS011;23796;51.458;7.000;2023-08-06T03:26:04;3.63;;;1.60;;
37973;SDS011;23796;51.458;7.000;2023-08-06T03:28:30;4.47;;;1.88;;
37973;SDS011;23796;51.458;7.000;2023-08-06T03:31:02;4.88;;;1.90;;
37973;SDS011;23796;51.458;7.000;2023-08-06T03:33:30;4.70;;;2.00;;
37973;SDS011;23796;51.458;7.000;2023-08-06T03:35:56;4.25;;;1.65;;
37973;SDS011;23796;51.458;7.000;2023-08-06T03:38:22;4.55;;;2.92;;
37973;SDS011;23796;51.458;7.000;2023-08-06T03:40:48;7.47;;;3.00;;
37973;SDS011;23796;51.458;7.000;2023-08-06T03:43:14;5.70;;;1.67;;
37973;SDS011;23796;51.458;7.000;2023-08-06T03:45:41;3.92;;;1.60;;
37973;SDS011;23796;51.458;7.000;2023-08-06T03:48:07;3.72;;;1.55;;
37973;SDS011;23796;51.458;7.000;2023-08-06T03:50:33;4.82;;;1.60;;
37973;SDS011;23796;51.458;7.000;2023-08-06T03:52:59;3.13;;;1.88;;
37973;SDS011;23796;51.458;7.000;2023-08-06T03:55:25;3.30;;;1.50;;
37973;SDS011;23796;51.458;7.000;2023-08-06T03:57:51;3.30;;;1.60;;
37973;SDS011;23796;51.458;7.000;2023-08-06T04:00:16;4.13;;;1.75;;
37973;SDS011;23796;51.458;7.000;2023-08-06T04:02:42;7.25;;;1.77;;
37973;SDS011;23796;51.458;7.000;2023-08-06T04:05:08;2.58;;;1.50;;
37973;SDS011;23796;51.458;7.000;2023-08-06T04:07:34;4.60;;;1.90;;
37973;SDS011;23796;51.458;7.000;2023-08-06T04:10:01;2.92;;;1.58;;
37973;SDS011;23796;51.458;7.000;2023-08-06T04:12:28;4.80;;;1.63;;
37973;SDS011;23796;51.458;7.000;2023-08-06T04:15:01;3.40;;;1.50;;
37973;SDS011;23796;51.458;7.000;2023-08-06T04:17:28;2.72;;;1.45;;
37973;SDS011;23796;51.458;7.000;2023-08-06T04:19:54;4.18;;;1.67;;
37973;SDS011;23796;51.458;7.000;2023-08-06T04:22:23;4.13;;;1.75;;
37973;SDS011;23796;51.458;7.000;2023-08-06T04:24:48;4.07;;;1.73;;
37973;SDS011;23796;51.458;7.000;2023-08-06T04:27:14;2.58;;;1.20;;
37973;SDS011;23796;51.458;7.000;2023-08-06T04:29:41;4.70;;;1.50;;
37973;SDS011;23796;51.458;7.000;2023-08-06T04:32:08;6.40;;;2.00;;
37973;SDS011;23796;51.458;7.000;2023-08-06T04:34:35;3.47;;;1.73;;
37973;SDS011;23796;51.458;7.000;2023-08-06T04:37:02;2.78;;;1.20;;
37973;SDS011;23796;51.458;7.000;2023-08-06T04:39:28;4.18;;;1.60;;
37973;SDS011;23796;51.458;7.000;2023-08-06T04:41:55;4.07;;;1.58;;
37973;SDS011;23796;51.458;7.000;2023-08-06T04:44:22;4.18;;;1.70;;
37973;SDS011;23796;51.458;7.000;2023-08-06T04:46:48;3.25;;;1.30;;
37973;SDS011;23796;51.458;7.000;2023-08-06T04:49:13;4.32;;;1.33;;
37973;SDS011;23796;51.458;7.000;2023-08-06T04:51:39;3.05;;;1.30;;
37973;SDS011;23796;51.458;7.000;2023-08-06T04:54:05;4.82;;;1.58;;
37973;SDS011;23796;51.458;7.000;2023-08-06T04:56:30;4.25;;;1.75;;
37973;SDS011;23796;51.458;7.000;2023-08-06T04:58:57;3.95;;;1.38;;
37973;SDS011;23796;51.458;7.000;2023-08-06T05:01:23;5.72;;;1.90;;
37973;SDS011;23796;51.458;7.000;2023-08-06T05:03:49;4.03;;;1.58;;
37973;SDS011;23796;51.458;7.000;2023-08-06T05:06:14;4.13;;;1.73;;
37973;SDS011;23796;51.458;7.000;2023-08-06T05:08:40;3.92;;;1.50;;
37973;SDS011;23796;51.458;7.000;2023-08-06T05:11:06;2.88;;;1.38;;
37973;SDS011;23796;51.458;7.000;2023-08-06T05:13:31;4.30;;;1.50;;
37973;SDS011;23796;51.458;7.000;2023-08-06T05:15:57;2.65;;;1.33;;
37973;SDS011;23796;51.458;7.000;2023-08-06T05:18:23;5.22;;;1.63;;
37973;SDS011;23796;51.458;7.000;2023-08-06T05:20:51;2.85;;;1.30;;
37973;SDS011;23796;51.458;7.000;2023-08-06T05:23:16;3.30;;;1.48;;
37973;SDS011;23796;51.458;7.000;2023-08-06T05:25:42;4.75;;;1.73;;
37973;SDS011;23796;51.458;7.000;2023-08-06T05:28:08;2.78;;;1.35;;
37973;SDS011;23796;51.458;7.000;2023-08-06T05:30:33;4.03;;;1.30;;
37973;SDS011;23796;51.458;7.000;2023-08-06T05:33:02;3.25;;;1.30;;
37973;SDS011;23796;51.458;7.000;2023-08-06T05:35:27;3.42;;;1.38;;
37973;SDS011;23796;51.458;7.000;2023-08-06T05:37:53;4.63;;;1.40;;
37973;SDS011;23796;51.458;7.000;2023-08-06T05:40:21;3.58;;;1.50;;
37973;SDS011;23796;51.458;7.000;2023-08-06T05:42:47;3.83;;;1.20;;
37973;SDS011;23796;51.458;7.000;2023-08-06T05:45:12;4.88;;;1.73;;
37973;SDS011;23796;51.458;7.000;2023-08-06T05:47:38;3.45;;;1.10;;
37973;SDS011;23796;51.458;7.000;2023-08-06T05:50:04;2.75;;;1.27;;
37973;SDS011;23796;51.458;7.000;2023-08-06T05:52:30;2.47;;;1.02;;
37973;SDS011;23796;51.458;7.000;2023-08-06T05:54:55;3.90;;;1.52;;
37973;SDS011;23796;51.458;7.000;2023-08-06T05:57:21;3.33;;;1.42;;
37973;SDS011;23796;51.458;7.000;2023-08-06T05:59:49;3.60;;;1.30;;
37973;SDS011;23796;51.458;7.000;2023-08-06T06:02:14;2.65;;;1.30;;
37973;SDS011;23796;51.458;7.000;2023-08-06T06:04:43;3.08;;;1.20;;
37973;SDS011;23796;51.458;7.000;2023-08-06T06:07:09;3.13;;;1.17;;
37973;SDS011;23796;51.458;7.000;2023-08-06T06:09:35;3.10;;;1.30;;
37973;SDS011;23796;51.458;7.000;2023-08-06T06:12:00;3.38;;;1.30;;
37973;SDS011;23796;51.458;7.000;2023-08-06T06:14:26;4.57;;;1.35;;
37973;SDS011;23796;51.458;7.000;2023-08-06T06:16:51;3.80;;;1.20;;
37973;SDS011;23796;51.458;7.000;2023-08-06T06:19:18;4.43;;;1.40;;
37973;SDS011;23796;51.458;7.000;2023-08-06T06:21:43;2.85;;;1.38;;
37973;SDS011;23796;51.458;7.000;2023-08-06T06:24:11;2.58;;;1.15;;
37973;SDS011;23796;51.458;7.000;2023-08-06T06:26:39;2.60;;;1.10;;
37973;SDS011;23796;51.458;7.000;2023-08-06T06:29:05;2.15;;;0.95;;
37973;SDS011;23796;51.458;7.000;2023-08-06T06:31:30;5.03;;;1.40;;
37973;SDS011;23796;51.458;7.000;2023-08-06T06:33:56;3.33;;;1.50;;
37973;SDS011;23796;51.458;7.000;2023-08-06T06:36:21;2.35;;;1.15;;
37973;SDS011;23796;51.458;7.000;2023-08-06T06:38:48;4.40;;;1.35;;
37973;SDS011;23796;51.458;7.000;2023-08-06T06:41:14;4.05;;;1.27;;
37973;SDS011;23796;51.458;7.000;2023-08-06T06:43:40;3.92;;;1.38;;
37973;SDS011;23796;51.458;7.000;2023-08-06T06:46:05;4.88;;;1.67;;
37973;SDS011;23796;51.458;7.000;2023-08-06T06:48:31;4.07;;;1.30;;
37973;SDS011;23796;51.458;7.000;2023-08-06T06:50:58;4.65;;;1.42;;
37973;SDS011;23796;51.458;7.000;2023-08-06T06:53:24;4.18;;;1.63;;
37973;SDS011;23796;51.458;7.000;2023-08-06T06:55:53;2.22;;;1.00;;
37973;SDS011;23796;51.458;7.000;2023-08-06T06:58:19;3.42;;;1.30;;
37973;SDS011;23796;51.458;7.000;2023-08-06T07:00:45;3.80;;;1.40;;
37973;SDS011;23796;51.458;7.000;2023-08-06T07:03:12;4.13;;;1.38;;
37973;SDS011;23796;51.458;7.000;2023-08-06T07:05:39;3.28;;;1.42;;
37973;SDS011;23796;51.458;7.000;2023-08-06T07:08:08;5.40;;;1.80;;
37973;SDS011;23796;51.458;7.000;2023-08-06T07:10:33;4.15;;;1.33;;
37973;SDS011;23796;51.458;7.000;2023-08-06T07:12:59;6.47;;;1.40;;
37973;SDS011;23796;51.458;7.000;2023-08-06T07:15:25;4.15;;;1.20;;
37973;SDS011;23796;51.458;7.000;2023-08-06T07:17:50;4.45;;;1.40;;
37973;SDS011;23796;51.458;7.000;2023-08-06T07:20:18;3.55;;;1.13;;
37973;SDS011;23796;51.458;7.000;2023-08-06T07:22:44;2.50;;;1.13;;
37973;SDS011;23796;51.458;7.000;2023-08-06T07:25:12;4.40;;;1.83;;
37973;SDS011;23796;51.458;7.000;2023-08-06T07:27:38;4.85;;;1.33;;
37973;SDS011;23796;51.458;7.000;2023-08-06T07:30:04;2.80;;;1.10;;
37973;SDS011;23796;51.458;7.000;2023-08-06T07:32:30;4.40;;;1.30;;
37973;SDS011;23796;51.458;7.000;2023-08-06T07:34:58;5.18;;;1.30;;
37973;SDS011;23796;51.458;7.000;2023-08-06T07:37:28;3.60;;;1.48;;
37973;SDS011;23796;51.458;7.000;2023-08-06T07:39:55;2.80;;;1.20;;
37973;SDS011;23796;51.458;7.000;2023-08-06T07:42:21;3.70;;;1.50;;
37973;SDS011;23796;51.458;7.000;2023-08-06T07:44:51;5.65;;;1.30;;
37973;SDS011;23796;51.458;7.000;2023-08-06T07:47:17;3.22;;;1.27;;
37973;SDS011;23796;51.458;7.000;2023-08-06T07:49:43;3.85;;;1.48;;
37973;SDS011;23796;51.458;7.000;2023-08-06T07:52:11;6.75;;;1.58;;
37973;SDS011;23796;51.458;7.000;2023-08-06T07:54:37;4.13;;;1.50;;
37973;SDS011;23796;51.458;7.000;2023-08-06T07:57:03;3.28;;;1.20;;
37973;SDS011;23796;51.458;7.000;2023-08-06T07:59:32;3.30;;;1.25;;
37973;SDS011;23796;51.458;7.000;2023-08-06T08:01:57;2.88;;;1.10;;
37973;SDS011;23796;51.458;7.000;2023-08-06T08:04:23;2.53;;;1.05;;
37973;SDS011;23796;51.458;7.000;2023-08-06T08:06:49;3.88;;;1.45;;
37973;SDS011;23796;51.458;7.000;2023-08-06T08:09:15;3.38;;;1.20;;
37973;SDS011;23796;51.458;7.000;2023-08-06T08:11:41;3.97;;;1.17;;
37973;SDS011;23796;51.458;7.000;2023-08-06T08:14:07;3.30;;;0.90;;
37973;SDS011;23796;51.458;7.000;2023-08-06T08:16:32;2.33;;;0.95;;
37973;SDS011;23796;51.458;7.000;2023-08-06T08:18:58;2.78;;;0.90;;
37973;SDS011;23796;51.458;7.000;2023-08-06T08:21:24;3.70;;;1.25;;
37973;SDS011;23796;51.458;7.000;2023-08-06T08:23:50;2.63;;;1.13;;
37973;SDS011;23796;51.458;7.000;2023-08-06T08:26:16;2.40;;;1.05;;
37973;SDS011;23796;51.458;7.000;2023-08-06T08:28:44;2.05;;;0.80;;
37973;SDS011;23796;51.458;7.000;2023-08-06T08:31:10;4.10;;;1.30;;
37973;SDS011;23796;51.458;7.000;2023-08-06T08:33:39;4.57;;;1.65;;
37973;SDS011;23796;51.458;7.000;2023-08-06T08:36:09;4.53;;;1.25;;
37973;SDS011;23796;51.458;7.000;2023-08-06T08:38:37;4.28;;;1.30;;
37973;SDS011;23796;51.458;7.000;2023-08-06T08:41:02;2.53;;;1.38;;
37973;SDS011;23796;51.458;7.000;2023-08-06T08:43:33;2.65;;;1.15;;
37973;SDS011;23796;51.458;7.000;2023-08-06T08:46:00;3.83;;;1.35;;
37973;SDS011;23796;51.458;7.000;2023-08-06T08:48:29;2.35;;;0.80;;
37973;SDS011;23796;51.458;7.000;2023-08-06T08:50:55;2.65;;;1.10;;
37973;SDS011;23796;51.458;7.000;2023-08-06T08:53:21;3.13;;;1.10;;
37973;SDS011;23796;51.458;7.000;2023-08-06T08:55:48;2.30;;;0.90;;
37973;SDS011;23796;51.458;7.000;2023-08-06T08:58:14;2.70;;;1.10;;
37973;SDS011;23796;51.458;7.000;2023-08-06T09:00:45;4.13;;;1.25;;
37973;SDS011;23796;51.458;7.000;2023-08-06T09:03:12;2.65;;;1.00;;
37973;SDS011;23796;51.458;7.000;2023-08-06T09:05:38;3.67;;;1.38;;
37973;SDS011;23796;51.458;7.000;2023-08-06T09:08:08;2.72;;;1.10;;
37973;SDS011;23796;51.458;7.000;2023-08-06T09:10:37;2.58;;;1.13;;
37973;SDS011;23796;51.458;7.000;2023-08-06T09:13:04;2.08;;;1.10;;
37973;SDS011;23796;51.458;7.000;2023-08-06T09:15:31;2.75;;;1.20;;
37973;SDS011;23796;51.458;7.000;2023-08-06T09:17:58;2.60;;;1.23;;
37973;SDS011;23796;51.458;7.000;2023-08-06T09:20:24;3.80;;;1.10;;
37973;SDS011;23796;51.458;7.000;2023-08-06T09:22:52;3.03;;;1.20;;
37973;SDS011;23796;51.458;7.000;2023-08-06T09:25:23;3.22;;;1.55;;
37973;SDS011;23796;51.458;7.000;2023-08-06T09:27:50;4.72;;;1.70;;
37973;SDS011;23796;51.458;7.000;2023-08-06T09:30:29;3.78;;;1.20;;
37973;SDS011;23796;51.458;7.000;2023-08-06T09:32:56;3.00;;;1.52;;
37973;SDS011;23796;51.458;7.000;2023-08-06T09:35:22;4.00;;;1.58;;
37973;SDS011;23796;51.458;7.000;2023-08-06T09:37:47;3.65;;;1.30;;
37973;SDS011;23796;51.458;7.000;2023-08-06T09:40:48;4.03;;;1.30;;
37973;SDS011;23796;51.458;7.000;2023-08-06T09:43:07;3.40;;;1.80;;
37973;SDS011;23796;51.458;7.000;2023-08-06T09:45:37;2.65;;;1.30;;
37973;SDS011;23796;51.458;7.000;2023-08-06T09:48:03;4.78;;;1.65;;
37973;SDS011;23796;51.458;7.000;2023-08-06T09:50:30;4.30;;;1.73;;
37973;SDS011;23796;51.458;7.000;2023-08-06T09:53:01;3.78;;;1.70;;
37973;SDS011;23796;51.458;7.000;2023-08-06T09:55:30;4.03;;;1.90;;
37973;SDS011;23796;51.458;7.000;2023-08-06T09:57:57;3.55;;;1.85;;
37973;SDS011;23796;51.458;7.000;2023-08-06T10:00:24;3.85;;;2.60;;
37973;SDS011;23796;51.458;7.000;2023-08-06T10:02:50;4.82;;;2.33;;
37973;SDS011;23796;51.458;7.000;2023-08-06T10:05:19;3.92;;;2.40;;
37973;SDS011;23796;51.458;7.000;2023-08-06T10:07:45;4.05;;;2.40;;
37973;SDS011;23796;51.458;7.000;2023-08-06T10:10:16;4.43;;;2.78;;
37973;SDS011;23796;51.458;7.000;2023-08-06T10:12:43;6.57;;;3.45;;
37973;SDS011;23796;51.458;7.000;2023-08-06T10:15:14;5.40;;;2.97;;
37973;SDS011;23796;51.458;7.000;2023-08-06T10:17:42;7.25;;;3.03;;
37973;SDS011;23796;51.458;7.000;2023-08-06T10:20:10;6.15;;;3.22;;
37973;SDS011;23796;51.458;7.000;2023-08-06T10:22:43;5.20;;;3.20;;
37973;SDS011;23796;51.458;7.000;2023-08-06T10:25:15;4.13;;;2.92;;
37973;SDS011;23796;51.458;7.000;2023-08-06T10:30:32;5.45;;;3.42;;
37973;SDS011;23796;51.458;7.000;2023-08-06T10:32:58;6.15;;;3.20;;
37973;SDS011;23796;51.458;7.000;2023-08-06T10:37:53;4.63;;;3.13;;
37973;SDS011;23796;51.458;7.000;2023-08-06T10:40:20;4.72;;;2.88;;
37973;SDS011;23796;51.458;7.000;2023-08-06T10:42:46;6.78;;;2.63;;
37973;SDS011;23796;51.458;7.000;2023-08-06T10:45:15;5.93;;;2.90;;
37973;SDS011;23796;51.458;7.000;2023-08-06T10:47:45;4.22;;;2.58;;
37973;SDS011;23796;51.458;7.000;2023-08-06T10:50:14;4.38;;;2.78;;
37973;SDS011;23796;51.458;7.000;2023-08-06T10:52:44;5.85;;;2.47;;
37973;SDS011;23796;51.458;7.000;2023-08-06T10:55:11;4.70;;;2.35;;
37973;SDS011;23796;51.458;7.000;2023-08-06T10:57:37;5.22;;;2.42;;
37973;SDS011;23796;51.458;7.000;2023-08-06T11:00:05;4.38;;;2.50;;
37973;SDS011;23796;51.458;7.000;2023-08-06T11:02:35;3.85;;;2.00;;
37973;SDS011;23796;51.458;7.000;2023-08-06T11:05:10;5.65;;;2.10;;
37973;SDS011;23796;51.458;7.000;2023-08-06T11:07:36;4.53;;;2.30;;
37973;SDS011;23796;51.458;7.000;2023-08-06T11:12:38;4.70;;;2.25;;
37973;SDS011;23796;51.458;7.000;2023-08-06T11:15:06;3.95;;;2.40;;
37973;SDS011;23796;51.458;7.000;2023-08-06T11:17:36;4.13;;;2.10;;
37973;SDS011;23796;51.458;7.000;2023-08-06T11:20:02;4.80;;;2.90;;
37973;SDS011;23796;51.458;7.000;2023-08-06T11:22:32;4.78;;;2.50;;
37973;SDS011;23796;51.458;7.000;2023-08-06T11:24:58;6.32;;;2.70;;
37973;SDS011;23796;51.458;7.000;2023-08-06T11:27:26;4.00;;;2.85;;
37973;SDS011;23796;51.458;7.000;2023-08-06T11:29:53;4.20;;;2.83;;
37973;SDS011;23796;51.458;7.000;2023-08-06T11:32:21;3.20;;;1.65;;
37973;SDS011;23796;51.458;7.000;2023-08-06T11:34:47;3.20;;;1.50;;
37973;SDS011;23796;51.458;7.000;2023-08-06T11:37:15;4.18;;;1.90;;
37973;SDS011;23796;51.458;7.000;2023-08-06T11:39:47;3.85;;;1.58;;
37973;SDS011;23796;51.458;7.000;2023-08-06T11:42:15;2.80;;;1.98;;
37973;SDS011;23796;51.458;7.000;2023-08-06T11:44:41;5.20;;;2.30;;
37973;SDS011;23796;51.458;7.000;2023-08-06T11:47:12;4.57;;;2.03;;
37973;SDS011;23796;51.458;7.000;2023-08-06T11:52:14;4.22;;;2.78;;
37973;SDS011;23796;51.458;7.000;2023-08-06T11:54:44;5.13;;;3.88;;
37973;SDS011;23796;51.458;7.000;2023-08-06T11:57:33;6.85;;;5.72;;
37973;SDS011;23796;51.458;7.000;2023-08-06T12:00:06;3.72;;;2.63;;
37973;SDS011;23796;51.458;7.000;2023-08-06T12:02:43;3.63;;;2.50;;
37973;SDS011;23796;51.458;7.000;2023-08-06T12:05:11;3.55;;;2.15;;
37973;SDS011;23796;51.458;7.000;2023-08-06T12:07:40;4.43;;;2.50;;
37973;SDS011;23796;51.458;7.000;2023-08-06T12:10:09;3.80;;;2.65;;
37973;SDS011;23796;51.458;7.000;2023-08-06T12:12:35;3.75;;;2.45;;
37973;SDS011;23796;51.458;7.000;2023-08-06T12:15:01;4.70;;;3.55;;
37973;SDS011;23796;51.458;7.000;2023-08-06T12:17:27;5.18;;;2.08;;
37973;SDS011;23796;51.458;7.000;2023-08-06T12:19:53;4.43;;;1.73;;
37973;SDS011;23796;51.458;7.000;2023-08-06T12:22:18;3.17;;;1.60;;
37973;SDS011;23796;51.458;7.000;2023-08-06T12:24:44;3.03;;;1.48;;
37973;SDS011;23796;51.458;7.000;2023-08-06T12:27:12;3.35;;;1.20;;
37973;SDS011;23796;51.458;7.000;2023-08-06T12:29:41;3.60;;;1.20;;
37973;SDS011;23796;51.458;7.000;2023-08-06T12:32:12;4.75;;;1.95;;
37973;SDS011;23796;51.458;7.000;2023-08-06T12:34:38;2.75;;;0.80;;
37973;SDS011;23796;51.458;7.000;2023-08-06T12:37:05;1.58;;;0.60;;
37973;SDS011;23796;51.458;7.000;2023-08-06T12:39:34;1.48;;;0.60;;
37973;SDS011;23796;51.458;7.000;2023-08-06T12:42:01;3.08;;;0.70;;
37973;SDS011;23796;51.458;7.000;2023-08-06T12:44:27;1.00;;;0.40;;
37973;SDS011;23796;51.458;7.000;2023-08-06T12:46:55;1.50;;;0.70;;
37973;SDS011;23796;51.458;7.000;2023-08-06T12:49:21;2.13;;;1.10;;
37973;SDS011;23796;51.458;7.000;2023-08-06T12:51:48;2.80;;;1.27;;
37973;SDS011;23796;51.458;7.000;2023-08-06T12:54:16;1.52;;;0.65;;
37973;SDS011;23796;51.458;7.000;2023-08-06T12:56:43;1.23;;;0.70;;
37973;SDS011;23796;51.458;7.000;2023-08-06T12:59:09;2.30;;;0.93;;
37973;SDS011;23796;51.458;7.000;2023-08-06T13:01:35;1.85;;;0.95;;
37973;SDS011;23796;51.458;7.000;2023-08-06T13:04:02;2.72;;;1.13;;
37973;SDS011;23796;51.458;7.000;2023-08-06T13:06:27;2.75;;;1.60;;
37973;SDS011;23796;51.458;7.000;2023-08-06T13:08:53;3.17;;;1.45;;
37973;SDS011;23796;51.458;7.000;2023-08-06T13:11:19;2.83;;;1.55;;
37973;SDS011;23796;51.458;7.000;2023-08-06T13:13:44;2.03;;;1.02;;
37973;SDS011;23796;51.458;7.000;2023-08-06T13:16:10;1.85;;;0.93;;
37973;SDS011;23796;51.458;7.000;2023-08-06T13:18:35;1.77;;;0.85;;
37973;SDS011;23796;51.458;7.000;2023-08-06T13:21:01;1.65;;;0.80;;
37973;SDS011;23796;51.458;7.000;2023-08-06T13:23:27;3.63;;;1.50;;
37973;SDS011;23796;51.458;7.000;2023-08-06T13:25:53;3.22;;;1.48;;
37973;SDS011;23796;51.458;7.000;2023-08-06T13:28:19;3.67;;;2.10;;
37973;SDS011;23796;51.458;7.000;2023-08-06T13:30:45;3.13;;;2.03;;
37973;SDS011;23796;51.458;7.000;2023-08-06T13:33:11;3.55;;;2.03;;
37973;SDS011;23796;51.458;7.000;2023-08-06T13:35:37;2.95;;;1.48;;
37973;SDS011;23796;51.458;7.000;2023-08-06T13:38:03;2.75;;;1.23;;
37973;SDS011;23796;51.458;7.000;2023-08-06T13:40:29;3.30;;;2.20;;
37973;SDS011;23796;51.458;7.000;2023-08-06T13:43:00;3.88;;;1.75;;
37973;SDS011;23796;51.458;7.000;2023-08-06T13:45:26;3.40;;;1.60;;
37973;SDS011;23796;51.458;7.000;2023-08-06T13:47:51;2.25;;;1.40;;
37973;SDS011;23796;51.458;7.000;2023-08-06T13:50:17;4.25;;;2.03;;
37973;SDS011;23796;51.458;7.000;2023-08-06T13:52:44;2.65;;;1.70;;
37973;SDS011;23796;51.458;7.000;2023-08-06T13:55:09;3.58;;;1.80;;
37973;SDS011;23796;51.458;7.000;2023-08-06T13:57:35;4.70;;;2.08;;
37973;SDS011;23796;51.458;7.000;2023-08-06T14:00:01;4.20;;;2.38;;
37973;SDS011;23796;51.458;7.000;2023-08-06T14:02:27;3.65;;;2.10;;
37973;SDS011;23796;51.458;7.000;2023-08-06T14:04:53;3.13;;;1.80;;
37973;SDS011;23796;51.458;7.000;2023-08-06T14:07:21;3.72;;;2.03;;
37973;SDS011;23796;51.458;7.000;2023-08-06T14:09:46;3.35;;;1.85;;
37973;SDS011;23796;51.458;7.000;2023-08-06T14:12:12;4.40;;;2.05;;
37973;SDS011;23796;51.458;7.000;2023-08-06T14:14:38;4.10;;;2.63;;
37973;SDS011;23796;51.458;7.000;2023-08-06T14:17:06;3.50;;;1.92;;
37973;SDS011;23796;51.458;7.000;2023-08-06T14:19:32;3.88;;;2.10;;
37973;SDS011;23796;51.458;7.000;2023-08-06T14:21:57;3.58;;;2.05;;
37973;SDS011;23796;51.458;7.000;2023-08-06T14:24:23;3.70;;;2.10;;
37973;SDS011;23796;51.458;7.000;2023-08-06T14:26:51;3.40;;;2.05;;
37973;SDS011;23796;51.458;7.000;2023-08-06T14:29:16;3.83;;;2.10;;
37973;SDS011;23796;51.458;7.000;2023-08-06T14:31:42;5.25;;;1.90;;
37973;SDS011;23796;51.458;7.000;2023-08-06T14:34:08;2.92;;;1.70;;
37973;SDS011;23796;51.458;7.000;2023-08-06T14:36:34;4.40;;;1.85;;
37973;SDS011;23796;51.458;7.000;2023-08-06T14:39:00;3.20;;;1.40;;
37973;SDS011;23796;51.458;7.000;2023-08-06T14:41:25;3.58;;;1.42;;
37973;SDS011;23796;51.458;7.000;2023-08-06T14:43:51;4.30;;;1.75;;
37973;SDS011;23796;51.458;7.000;2023-08-06T14:46:16;2.80;;;1.38;;
37973;SDS011;23796;51.458;7.000;2023-08-06T14:48:42;2.92;;;1.42;;
37973;SDS011;23796;51.458;7.000;2023-08-06T14:51:08;3.13;;;1.08;;
37973;SDS011;23796;51.458;7.000;2023-08-06T14:53:34;3.53;;;1.33;;
37973;SDS011;23796;51.458;7.000;2023-08-06T14:55:59;3.33;;;1.30;;
37973;SDS011;23796;51.458;7.000;2023-08-06T14:58:28;3.70;;;1.63;;
37973;SDS011;23796;51.458;7.000;2023-08-06T15:00:53;3.20;;;1.55;;
37973;SDS011;23796;51.458;7.000;2023-08-06T15:03:19;3.20;;;1.83;;
37973;SDS011;23796;51.458;7.000;2023-08-06T15:05:48;3.17;;;1.77;;